createdAt,value
2018-08-22T00:01:11.570Z,68.24
2018-08-22T00:03:49.560Z,68.00
2018-08-22T00:06:26.248Z,68.34
2018-08-22T00:09:03.811Z,68.89
2018-08-22T00:11:41.615Z,68.25
2018-08-22T00:14:18.658Z,69.00
2018-08-22T00:16:55.624Z,68.08
2018-08-22T00:19:33.574Z,68.42
2018-08-22T00:22:10.251Z,68.50
2018-08-22T00:24:46.717Z,69.15
2018-08-22T00:27:22.839Z,69.34
2018-08-22T00:30:00.075Z,69.68
2018-08-22T00:32:38.066Z,69.01
2018-08-22T00:35:14.774Z,68.29
2018-08-22T00:37:51.384Z,69.08
2018-08-22T00:40:26.352Z,68.11
2018-08-22T00:43:03.142Z,69.02
2018-08-22T00:45:39.539Z,69.13
2018-08-22T00:48:16.495Z,68.77
2018-08-22T00:50:53.323Z,68.08
2018-08-22T00:53:30.706Z,68.77
2018-08-22T00:56:08.835Z,68.90
2018-08-22T00:58:38.494Z,68.39
2018-08-22T01:01:08.353Z,68.61
2018-08-22T01:03:38.306Z,69.76
2018-08-22T01:06:08.050Z,69.38
2018-08-22T01:08:38.046Z,69.68
2018-08-22T01:11:07.861Z,69.07
2018-08-22T01:13:37.737Z,68.92
2018-08-22T01:16:07.786Z,68.45
2018-08-22T01:18:37.479Z,68.32
2018-08-22T01:21:08.202Z,69.53
2018-08-22T01:23:38.414Z,69.20
2018-08-22T01:26:08.167Z,68.61
2018-08-22T01:28:38.446Z,68.36
2018-08-22T01:31:08.161Z,69.13
2018-08-22T01:33:38.432Z,68.66
2018-08-22T01:36:08.245Z,69.63
2018-08-22T01:38:37.920Z,69.08
2018-08-22T01:41:07.921Z,69.46
2018-08-22T01:43:37.854Z,69.54
2018-08-22T01:46:07.512Z,69.49
2018-08-22T01:48:37.337Z,69.82
2018-08-22T01:51:07.162Z,70.35
2018-08-22T01:53:37.031Z,70.16
2018-08-22T01:56:06.957Z,69.14
2018-08-22T01:58:36.669Z,70.30
2018-08-22T02:01:06.392Z,69.17
2018-08-22T02:03:36.243Z,69.41
2018-08-22T02:06:06.575Z,69.56
2018-08-22T02:08:36.412Z,68.94
2018-08-22T02:11:06.847Z,69.01
2018-08-22T02:13:36.519Z,69.21
2018-08-22T02:16:06.679Z,69.58
2018-08-22T02:18:36.542Z,69.43
2018-08-22T02:21:06.960Z,69.56
2018-08-22T02:23:36.883Z,70.11
2018-08-22T02:26:06.730Z,70.24
2018-08-22T02:28:36.685Z,70.89
2018-08-22T02:31:06.915Z,70.58
2018-08-22T02:33:36.800Z,70.22
2018-08-22T02:36:06.572Z,69.87
2018-08-22T02:38:36.496Z,70.16
2018-08-22T02:41:06.726Z,70.83
2018-08-22T02:43:36.552Z,70.72
2018-08-22T02:46:07.027Z,70.96
2018-08-22T02:48:41.950Z,71.81
2018-08-22T02:51:11.742Z,71.77
2018-08-22T02:53:41.577Z,71.11
2018-08-22T02:56:11.661Z,70.97
2018-08-22T02:58:41.391Z,71.34
2018-08-22T03:01:11.289Z,70.76
2018-08-22T03:03:41.167Z,71.14
2018-08-22T03:06:10.910Z,70.80
2018-08-22T03:08:40.704Z,71.58
2018-08-22T03:11:10.680Z,71.66
2018-08-22T03:13:40.394Z,71.72
2018-08-22T03:16:10.365Z,71.57
2018-08-22T03:18:40.088Z,71.86
2018-08-22T03:21:09.882Z,71.76
2018-08-22T03:23:39.550Z,71.40
2018-08-22T03:26:09.349Z,70.90
2018-08-22T03:28:40.161Z,71.40
2018-08-22T03:31:10.044Z,71.14
2018-08-22T03:33:39.823Z,71.92
2018-08-22T03:36:09.918Z,71.68
2018-08-22T03:38:39.782Z,71.16
2018-08-22T03:41:09.708Z,71.52
2018-08-22T03:43:39.638Z,70.83
2018-08-22T03:46:09.603Z,71.85
2018-08-22T03:48:39.505Z,71.56
2018-08-22T03:51:09.459Z,71.37
2018-08-22T03:53:45.706Z,72.25
2018-08-22T03:56:21.170Z,72.41
2018-08-22T03:58:50.929Z,71.52
2018-08-22T04:01:20.771Z,72.05
2018-08-22T04:03:50.418Z,71.36
2018-08-22T04:06:20.231Z,71.94
2018-08-22T04:08:50.439Z,72.02
2018-08-22T04:11:20.282Z,72.68
2018-08-22T04:13:50.066Z,72.39
2018-08-22T04:16:22.048Z,71.83
2018-08-22T04:18:52.057Z,71.11
2018-08-22T04:21:21.693Z,72.65
2018-08-22T04:23:52.696Z,72.66
2018-08-22T04:26:22.535Z,72.05
2018-08-22T04:28:52.409Z,72.82
2018-08-22T04:31:22.277Z,72.53
2018-08-22T04:33:52.532Z,72.47
2018-08-22T04:36:22.479Z,72.58
2018-08-22T04:38:52.329Z,73.03
2018-08-22T04:41:22.283Z,73.23
2018-08-22T04:43:52.132Z,73.59
2018-08-22T04:46:21.987Z,73.35
2018-08-22T04:48:51.793Z,73.63
2018-08-22T04:51:21.611Z,73.94
2018-08-22T04:53:51.623Z,74.44
2018-08-22T04:56:21.337Z,73.87
2018-08-22T04:58:51.143Z,74.00
2018-08-22T05:01:20.969Z,73.21
2018-08-22T05:03:50.866Z,73.82
2018-08-22T05:06:20.734Z,74.01
2018-08-22T05:08:50.593Z,73.73
2018-08-22T05:11:20.421Z,73.42
2018-08-22T05:13:50.378Z,73.41
2018-08-22T05:16:20.228Z,73.95
2018-08-22T05:18:50.431Z,72.76
2018-08-22T05:21:20.440Z,73.29
2018-08-22T05:23:50.528Z,73.30
2018-08-22T05:26:20.431Z,72.23
2018-08-22T05:28:50.287Z,73.14
2018-08-22T05:31:20.368Z,73.47
2018-08-22T05:33:50.388Z,72.41
2018-08-22T05:36:20.255Z,72.45
2018-08-22T05:38:50.384Z,72.59
2018-08-22T05:41:20.076Z,72.70
2018-08-22T05:43:49.980Z,72.36
2018-08-22T05:46:19.936Z,72.52
2018-08-22T05:48:51.104Z,72.25
2018-08-22T05:51:20.951Z,71.81
2018-08-22T05:53:53.974Z,72.41
2018-08-22T05:56:24.030Z,72.10
2018-08-22T05:58:53.913Z,71.97
2018-08-22T06:01:23.814Z,72.19
2018-08-22T06:03:56.082Z,71.03
2018-08-22T06:06:26.073Z,71.10
2018-08-22T06:08:55.914Z,70.76
2018-08-22T06:11:26.007Z,71.23
2018-08-22T06:13:58.957Z,70.84
2018-08-22T06:16:35.981Z,70.27
2018-08-22T06:19:10.519Z,69.33
2018-08-22T06:21:43.555Z,69.61
2018-08-22T06:24:16.696Z,68.75
2018-08-22T06:26:50.795Z,68.97
2018-08-22T06:29:25.500Z,68.91
2018-08-22T06:31:59.283Z,67.99
2018-08-22T06:34:32.954Z,68.30
2018-08-22T06:37:06.698Z,67.37
2018-08-22T06:39:40.617Z,67.33
2018-08-22T06:42:14.136Z,67.59
2018-08-22T06:44:44.011Z,66.98
2018-08-22T06:47:13.811Z,66.38
2018-08-22T06:49:43.622Z,66.22
2018-08-22T06:52:13.739Z,65.59
2018-08-22T06:54:43.591Z,65.98
2018-08-22T06:57:13.516Z,65.44
2018-08-22T06:59:43.223Z,64.96
2018-08-22T07:02:12.902Z,65.52
2018-08-22T07:04:42.713Z,64.86
2018-08-22T07:07:12.559Z,64.29
2018-08-22T07:09:42.407Z,64.16
2018-08-22T07:12:12.220Z,63.92
2018-08-22T07:14:42.135Z,63.34
2018-08-22T07:17:13.039Z,63.82
2018-08-22T07:19:42.972Z,63.45
2018-08-22T07:22:12.748Z,62.80
2018-08-22T07:24:42.543Z,62.92
2018-08-22T07:27:12.212Z,61.91
2018-08-22T07:29:43.264Z,62.57
2018-08-22T07:32:13.276Z,62.27
2018-08-22T07:34:43.283Z,61.88
2018-08-22T07:37:13.103Z,61.43
2018-08-22T07:39:42.958Z,60.77
2018-08-22T07:42:12.975Z,60.17
2018-08-22T07:44:42.943Z,60.22
2018-08-22T07:47:12.818Z,58.91
2018-08-22T07:49:42.424Z,58.41
2018-08-22T07:52:12.282Z,57.40
2018-08-22T07:54:44.918Z,57.78
2018-08-22T07:57:16.465Z,57.75
2018-08-22T07:59:46.373Z,56.74
2018-08-22T08:02:17.551Z,56.88
2018-08-22T08:04:48.714Z,56.27
2018-08-22T08:07:18.810Z,56.38
2018-08-22T08:09:48.805Z,56.00
2018-08-22T08:12:20.723Z,55.72
2018-08-22T08:14:54.695Z,55.74
2018-08-22T08:17:24.524Z,55.63
2018-08-22T08:19:54.397Z,54.75
2018-08-22T08:22:24.215Z,53.74
2018-08-22T08:24:54.117Z,53.97
2018-08-22T08:27:24.627Z,54.04
2018-08-22T08:29:54.517Z,53.88
2018-08-22T08:32:24.354Z,53.76
2018-08-22T08:34:54.395Z,53.89
2018-08-22T08:37:24.300Z,54.11
2018-08-22T08:39:54.231Z,53.25
2018-08-22T08:42:24.199Z,53.02
2018-08-22T08:44:54.022Z,52.52
2018-08-22T08:47:24.822Z,52.61
2018-08-22T08:49:54.916Z,51.81
2018-08-22T08:52:25.083Z,50.33
2018-08-22T08:54:54.920Z,47.57
2018-08-22T08:57:25.496Z,48.13
2018-08-22T08:59:55.418Z,48.51
2018-08-22T09:02:25.177Z,49.24
2018-08-22T09:04:55.144Z,47.45
2018-08-22T09:07:24.873Z,47.30
2018-08-22T09:09:54.707Z,47.16
2018-08-22T09:12:24.496Z,46.98
2018-08-22T09:17:26.049Z,47.47
2018-08-22T09:19:55.901Z,46.04
2018-08-22T09:22:25.780Z,45.65
2018-08-22T09:24:55.582Z,45.22
2018-08-22T09:27:25.530Z,46.05
2018-08-22T09:29:55.335Z,45.26
2018-08-22T09:32:25.164Z,44.89
2018-08-22T09:34:54.937Z,43.75
2018-08-22T09:37:24.872Z,44.25
2018-08-22T09:40:07.290Z,44.65
2018-08-22T09:42:37.235Z,43.91
2018-08-22T09:45:06.943Z,44.03
2018-08-22T09:47:36.646Z,43.64
2018-08-22T09:50:06.930Z,43.17
2018-08-22T09:52:36.893Z,42.00
2018-08-22T09:55:07.519Z,41.59
2018-08-22T09:57:37.312Z,41.88
2018-08-22T10:00:12.125Z,42.00
2018-08-22T10:02:41.890Z,42.37
2018-08-22T10:05:11.717Z,41.22
2018-08-22T10:07:44.290Z,40.49
2018-08-22T10:10:14.078Z,41.42
2018-08-22T10:12:45.054Z,41.81
2018-08-22T10:15:14.851Z,42.13
2018-08-22T10:17:44.886Z,41.07
2018-08-22T10:20:15.652Z,42.07
2018-08-22T10:22:45.568Z,42.86
2018-08-22T10:25:15.655Z,41.24
2018-08-22T10:27:45.622Z,40.27
2018-08-22T10:30:15.283Z,40.38
2018-08-22T10:32:45.237Z,40.08
2018-08-22T10:35:15.094Z,38.93
2018-08-22T10:37:44.970Z,38.01
2018-08-22T10:40:14.842Z,37.76
2018-08-22T10:42:44.975Z,37.32
2018-08-22T10:45:14.830Z,37.75
2018-08-22T10:47:44.709Z,37.73
2018-08-22T10:50:14.957Z,37.53
2018-08-22T10:52:44.959Z,38.48
2018-08-22T10:55:14.655Z,37.08
2018-08-22T10:57:44.441Z,37.37
2018-08-22T11:00:14.583Z,36.86
2018-08-22T11:02:44.430Z,38.93
2018-08-22T11:05:14.436Z,38.75
2018-08-22T11:07:44.587Z,39.30
2018-08-22T11:10:14.459Z,37.25
2018-08-22T11:12:46.003Z,35.78
2018-08-22T11:15:15.799Z,36.11
2018-08-22T11:17:45.661Z,36.05
2018-08-22T11:20:15.452Z,35.78
2018-08-22T11:23:01.944Z,36.44
2018-08-22T11:25:48.203Z,36.30
2018-08-22T11:28:34.646Z,36.32
2018-08-22T11:31:21.496Z,36.38
2018-08-22T11:34:07.784Z,35.21
2018-08-22T11:36:36.811Z,35.29
2018-08-22T11:39:08.602Z,35.80
2018-08-22T11:41:38.444Z,35.40
2018-08-22T11:44:08.275Z,35.75
2018-08-22T11:46:38.187Z,33.96
2018-08-22T11:49:08.111Z,34.01
2018-08-22T11:51:38.176Z,35.21
2018-08-22T11:54:07.992Z,35.50
2018-08-22T11:56:38.784Z,34.78
2018-08-22T11:59:08.394Z,34.21
2018-08-22T12:01:38.395Z,31.96
2018-08-22T12:04:08.820Z,32.87
2018-08-22T12:06:38.639Z,32.37
2018-08-22T12:09:10.434Z,32.55
2018-08-22T12:11:40.289Z,32.90
2018-08-22T12:14:10.474Z,31.80
2018-08-22T12:16:40.694Z,32.06
2018-08-22T12:19:11.017Z,31.56
2018-08-22T12:21:41.502Z,30.68
2018-08-22T12:24:11.267Z,30.72
2018-08-22T12:26:41.114Z,29.89
2018-08-22T12:29:11.552Z,29.16
2018-08-22T12:31:41.294Z,28.46
2018-08-22T12:34:11.284Z,29.63
2018-08-22T12:36:41.217Z,30.50
2018-08-22T12:39:10.913Z,30.39
2018-08-22T12:41:40.687Z,29.93
2018-08-22T12:44:10.602Z,29.20
2018-08-22T12:46:40.445Z,28.97
2018-08-22T12:49:10.488Z,28.97
2018-08-22T12:51:40.178Z,28.39
2018-08-22T12:54:09.847Z,29.41
2018-08-22T12:56:39.509Z,29.92
2018-08-22T12:59:09.546Z,28.92
2018-08-22T13:01:39.436Z,29.45
2018-08-22T13:04:09.370Z,28.35
2018-08-22T13:06:41.510Z,29.21
2018-08-22T13:09:11.921Z,29.35
2018-08-22T13:11:42.053Z,29.12
2018-08-22T13:14:11.837Z,29.85
2018-08-22T13:16:41.551Z,30.61
2018-08-22T13:19:11.443Z,29.83
2018-08-22T13:21:41.341Z,29.24
2018-08-22T13:24:14.199Z,28.52
2018-08-22T13:26:43.922Z,28.94
2018-08-22T13:29:13.730Z,28.79
2018-08-22T13:31:43.587Z,30.29
2018-08-22T13:34:13.394Z,30.45
2018-08-22T13:36:43.168Z,30.75
2018-08-22T13:39:13.122Z,31.05
2018-08-22T13:41:43.115Z,31.38
2018-08-22T13:44:12.864Z,30.08
2018-08-22T13:46:42.597Z,30.00
2018-08-22T13:49:12.399Z,30.18
2018-08-22T13:51:42.298Z,29.80
2018-08-22T13:54:11.879Z,30.82
2018-08-22T13:56:41.582Z,31.63
2018-08-22T13:59:11.537Z,30.39
2018-08-22T14:01:41.277Z,30.24
2018-08-22T14:04:11.142Z,31.41
2018-08-22T14:06:41.200Z,31.55
2018-08-22T14:09:11.957Z,30.95
2018-08-22T14:11:42.034Z,32.70
2018-08-22T14:14:11.881Z,33.35
2018-08-22T14:16:41.762Z,34.08
2018-08-22T14:19:12.173Z,34.50
2018-08-22T14:21:42.270Z,31.91
2018-08-22T14:24:12.059Z,31.06
2018-08-22T14:26:41.929Z,30.99
2018-08-22T14:29:11.891Z,30.20
2018-08-22T14:31:42.073Z,31.25
2018-08-22T14:34:11.734Z,32.13
2018-08-22T14:36:41.609Z,31.90
2018-08-22T14:39:12.685Z,32.50
2018-08-22T14:41:42.955Z,32.48
2018-08-22T14:46:50.448Z,32.72
2018-08-22T14:49:20.958Z,33.17
2018-08-22T14:51:51.245Z,32.52
2018-08-22T14:54:22.028Z,32.35
2018-08-22T14:56:52.272Z,31.03
2018-08-22T14:59:22.335Z,30.43
2018-08-22T15:01:52.467Z,29.74
2018-08-22T15:04:22.758Z,28.91
2018-08-22T15:06:53.122Z,29.81
2018-08-22T15:09:23.380Z,29.11
2018-08-22T15:11:53.757Z,28.26
2018-08-22T15:14:24.065Z,28.21
2018-08-22T15:16:54.712Z,29.11
2018-08-22T15:19:25.221Z,29.83
2018-08-22T15:21:55.443Z,30.53
2018-08-22T15:24:25.627Z,30.16
2018-08-22T15:26:56.025Z,29.77
2018-08-22T15:29:27.706Z,30.45
2018-08-22T15:32:00.587Z,29.70
2018-08-22T15:35:02.299Z,30.14
2018-08-22T15:37:33.129Z,30.58
2018-08-22T15:40:03.142Z,30.67
2018-08-22T15:42:33.420Z,30.36
2018-08-22T15:45:03.652Z,31.04
2018-08-22T15:47:34.002Z,31.64
2018-08-22T15:50:04.672Z,31.72
2018-08-22T15:52:34.835Z,32.92
2018-08-22T15:55:13.017Z,32.78
2018-08-22T15:57:56.331Z,32.44
2018-08-22T16:00:39.831Z,33.84
2018-08-22T16:03:10.822Z,32.46
2018-08-22T16:05:41.880Z,32.70
2018-08-22T16:08:12.837Z,32.13
2018-08-22T16:10:42.935Z,32.97
2018-08-22T16:13:19.132Z,33.26
2018-08-22T16:15:50.730Z,33.80
2018-08-22T16:18:21.144Z,33.21
2018-08-22T16:20:56.595Z,33.03
2018-08-22T16:23:28.300Z,34.16
2018-08-22T16:25:59.823Z,33.83
2018-08-22T16:28:41.934Z,33.56
2018-08-22T16:31:12.112Z,33.39
2018-08-22T16:33:42.059Z,33.71
2018-08-22T16:36:16.257Z,34.30
2018-08-22T16:38:46.893Z,34.92
2018-08-22T16:41:18.501Z,35.01
2018-08-22T16:43:50.950Z,35.60
2018-08-22T16:46:20.990Z,37.15
2018-08-22T16:48:55.020Z,36.68
2018-08-22T16:51:25.382Z,36.04
2018-08-22T16:54:01.334Z,35.76
2018-08-22T16:56:33.533Z,36.62
2018-08-22T16:59:09.313Z,36.87
2018-08-22T17:01:41.738Z,35.69
2018-08-22T17:04:12.226Z,36.06
2018-08-22T17:06:42.376Z,35.56
2018-08-22T17:09:12.892Z,36.30
2018-08-22T17:11:43.175Z,35.95
2018-08-22T17:14:13.341Z,36.60
2018-08-22T17:16:43.481Z,37.05
2018-08-22T17:19:13.543Z,37.38
2018-08-22T17:21:43.719Z,37.75
2018-08-22T17:24:14.017Z,37.38
2018-08-22T17:26:44.315Z,37.84
2018-08-22T17:29:14.569Z,38.44
2018-08-22T17:31:50.404Z,38.59
2018-08-22T17:34:20.650Z,37.76
2018-08-22T17:37:04.832Z,38.29
2018-08-22T17:39:34.551Z,37.68
2018-08-22T17:42:04.625Z,38.32
2018-08-22T17:44:34.558Z,39.21
2018-08-22T17:47:04.368Z,39.29
2018-08-22T17:49:40.616Z,39.46
2018-08-22T17:52:11.720Z,40.15
2018-08-22T17:54:42.101Z,41.62
2018-08-22T17:57:21.498Z,41.68
2018-08-22T17:59:51.667Z,43.21
2018-08-22T18:02:21.391Z,43.71
2018-08-22T18:04:56.690Z,43.36
2018-08-22T18:07:26.595Z,45.51
2018-08-22T18:09:56.606Z,46.24
2018-08-22T18:12:27.854Z,45.92
2018-08-22T18:15:00.171Z,46.75
2018-08-22T18:17:30.218Z,48.23
2018-08-22T18:20:00.327Z,49.01
2018-08-22T18:25:11.825Z,50.86
2018-08-22T18:27:41.941Z,51.62
2018-08-22T18:30:12.954Z,51.50
2018-08-22T18:32:45.340Z,51.92
2018-08-22T18:35:15.335Z,52.98
2018-08-22T18:37:45.665Z,53.93
2018-08-22T18:40:29.389Z,55.49
2018-08-22T18:43:02.631Z,56.67
2018-08-22T18:45:32.845Z,56.59
2018-08-22T18:48:05.754Z,58.03
2018-08-22T18:50:35.846Z,57.95
2018-08-22T18:53:06.760Z,58.57
2018-08-22T18:55:36.878Z,59.42
2018-08-22T18:58:07.176Z,59.17
2018-08-22T19:00:38.163Z,59.40
2018-08-22T19:03:07.528Z,60.48
2018-08-22T19:05:37.886Z,60.42
2018-08-22T19:08:12.361Z,60.13
2018-08-22T19:10:44.074Z,60.14
2018-08-22T19:13:21.000Z,60.31
2018-08-22T19:15:54.511Z,61.11
2018-08-22T19:18:24.032Z,61.42
2018-08-22T19:20:58.171Z,60.99
2018-08-22T19:23:27.610Z,61.95
2018-08-22T19:25:57.735Z,61.39
2018-08-22T19:28:27.115Z,61.70
2018-08-22T19:30:56.668Z,62.60
2018-08-22T19:33:27.161Z,62.31
2018-08-22T19:35:56.760Z,62.32
2018-08-22T19:38:28.294Z,62.50
2018-08-22T19:40:58.904Z,61.93
2018-08-22T19:43:28.394Z,62.99
2018-08-22T19:45:58.298Z,63.43
2018-08-22T19:48:28.465Z,63.24
2018-08-22T19:50:58.376Z,62.89
2018-08-22T19:53:28.448Z,63.24
2018-08-22T19:55:58.303Z,63.81
2018-08-22T19:58:34.303Z,63.40
2018-08-22T20:01:04.329Z,63.68
2018-08-22T20:03:35.577Z,64.33
2018-08-22T20:06:06.921Z,63.41
2018-08-22T20:08:38.316Z,63.87
2018-08-22T20:11:09.028Z,63.95
2018-08-22T20:13:51.322Z,64.28
2018-08-22T20:16:22.708Z,65.05
2018-08-22T20:18:54.814Z,65.40
2018-08-22T20:21:29.124Z,65.23
2018-08-22T20:24:01.773Z,64.82
2018-08-22T20:26:32.902Z,65.82
2018-08-22T20:29:04.943Z,66.02
2018-08-22T20:31:37.017Z,66.07
2018-08-22T20:34:18.369Z,65.52
2018-08-22T20:36:51.026Z,65.63
2018-08-22T20:39:21.753Z,65.31
2018-08-22T20:41:56.428Z,65.99
2018-08-22T20:44:26.091Z,66.24
2018-08-22T20:46:55.973Z,67.73
2018-08-22T20:49:25.656Z,67.83
2018-08-22T20:51:55.404Z,68.65
2018-08-22T20:54:25.205Z,69.02
2018-08-22T20:57:01.146Z,69.15
2018-08-22T20:59:31.187Z,68.62
2018-08-22T21:02:05.165Z,68.77
2018-08-22T21:04:35.637Z,71.09
2018-08-22T21:07:05.696Z,70.77
2018-08-22T21:09:35.313Z,70.10
2018-08-22T21:12:11.038Z,69.93
2018-08-22T21:14:40.640Z,70.67
2018-08-22T21:17:10.386Z,70.25
2018-08-22T21:19:40.331Z,70.11
2018-08-22T21:22:31.339Z,69.46
2018-08-22T21:25:01.737Z,69.53
2018-08-22T21:27:31.943Z,69.37
2018-08-22T21:30:02.262Z,69.11
2018-08-22T21:32:38.407Z,69.62
2018-08-22T21:35:15.193Z,70.13
2018-08-22T21:37:45.049Z,69.65
2018-08-22T21:40:14.918Z,69.23
2018-08-22T21:42:44.980Z,69.73
2018-08-22T21:45:15.191Z,69.59
2018-08-22T21:47:45.118Z,69.70
2018-08-22T21:50:15.311Z,69.84
2018-08-22T21:52:55.382Z,68.81
2018-08-22T21:55:30.285Z,69.58
2018-08-22T21:58:00.128Z,69.60
2018-08-22T22:00:30.353Z,69.58
2018-08-22T22:03:00.277Z,69.39
2018-08-22T22:05:44.214Z,69.90
2018-08-22T22:08:14.183Z,69.71
2018-08-22T22:10:44.232Z,70.99
2018-08-22T22:13:14.264Z,70.60
2018-08-22T22:15:45.538Z,70.05
2018-08-22T22:18:15.511Z,70.45
2018-08-22T22:20:50.670Z,70.43
2018-08-22T22:23:20.107Z,70.61
2018-08-22T22:25:49.999Z,70.52
2018-08-22T22:28:21.769Z,71.35
2018-08-22T22:30:51.277Z,71.44
2018-08-22T22:33:20.736Z,70.93
2018-08-22T22:35:50.129Z,71.46
2018-08-22T22:38:19.691Z,71.98
2018-08-22T22:40:49.115Z,71.62
2018-08-22T22:43:18.511Z,72.05
2018-08-22T22:45:47.905Z,71.53
2018-08-22T22:48:33.607Z,71.37
2018-08-22T22:51:03.031Z,71.44
2018-08-22T22:53:32.499Z,71.57
2018-08-22T22:56:02.402Z,71.33
2018-08-22T22:58:32.745Z,71.20
2018-08-22T23:01:02.355Z,71.84
2018-08-22T23:03:31.749Z,71.07
2018-08-22T23:06:01.165Z,71.85
2018-08-22T23:08:30.550Z,71.55
2018-08-22T23:11:00.357Z,72.17
2018-08-22T23:13:30.158Z,71.97
2018-08-22T23:15:59.569Z,72.80
2018-08-22T23:18:36.062Z,72.27
2018-08-22T23:21:14.598Z,71.26
2018-08-22T23:23:51.194Z,71.80
2018-08-22T23:26:26.652Z,71.84
2018-08-22T23:29:04.479Z,72.17
2018-08-22T23:31:42.507Z,72.18
2018-08-22T23:34:17.298Z,71.84
2018-08-22T23:36:54.418Z,71.92
2018-08-22T23:39:32.673Z,72.00
2018-08-22T23:42:19.222Z,72.20
2018-08-22T23:44:57.574Z,72.92
2018-08-22T23:47:33.702Z,72.17
2018-08-22T23:50:11.586Z,72.30
2018-08-22T23:52:53.702Z,72.50
2018-08-22T23:55:29.632Z,73.19
2018-08-22T23:58:05.861Z,73.17
